sensor_id;sensor_type;location;lat;lon;timestamp;P1;durP1;ratioP1;P2;durP2;ratioP2
50319;SDS011;36226;53.464;9.852;2023-03-04T00:01:18;9.23;;;1.92;;
50319;SDS011;36226;53.464;9.852;2023-03-04T00:03:43;22.98;;;1.98;;
50319;SDS011;36226;53.464;9.852;2023-03-04T00:06:08;13.25;;;1.40;;
50319;SDS011;36226;53.464;9.852;2023-03-04T00:08:34;14.93;;;1.98;;
50319;SDS011;36226;53.464;9.852;2023-03-04T00:10:59;17.88;;;1.58;;
50319;SDS011;36226;53.464;9.852;2023-03-04T00:13:25;10.18;;;1.48;;
50319;SDS011;36226;53.464;9.852;2023-03-04T00:15:50;8.07;;;1.50;;
50319;SDS011;36226;53.464;9.852;2023-03-04T00:18:16;13.48;;;1.63;;
50319;SDS011;36226;53.464;9.852;2023-03-04T00:20:41;10.90;;;1.10;;
50319;SDS011;36226;53.464;9.852;2023-03-04T00:23:07;11.73;;;1.25;;
50319;SDS011;36226;53.464;9.852;2023-03-04T00:25:32;14.35;;;1.45;;
50319;SDS011;36226;53.464;9.852;2023-03-04T00:27:58;9.68;;;1.38;;
50319;SDS011;36226;53.464;9.852;2023-03-04T00:30:23;9.20;;;1.13;;
50319;SDS011;36226;53.464;9.852;2023-03-04T00:32:49;12.63;;;1.42;;
50319;SDS011;36226;53.464;9.852;2023-03-04T00:35:14;11.15;;;1.25;;
50319;SDS011;36226;53.464;9.852;2023-03-04T00:37:39;8.93;;;1.20;;
50319;SDS011;36226;53.464;9.852;2023-03-04T00:40:05;11.55;;;1.65;;
50319;SDS011;36226;53.464;9.852;2023-03-04T00:42:34;10.82;;;1.20;;
50319;SDS011;36226;53.464;9.852;2023-03-04T00:44:59;10.70;;;1.10;;
50319;SDS011;36226;53.464;9.852;2023-03-04T00:47:25;11.85;;;1.73;;
50319;SDS011;36226;53.464;9.852;2023-03-04T00:49:50;9.50;;;1.55;;
50319;SDS011;36226;53.464;9.852;2023-03-04T00:52:15;8.25;;;1.17;;
50319;SDS011;36226;53.464;9.852;2023-03-04T00:54:41;13.00;;;1.48;;
50319;SDS011;36226;53.464;9.852;2023-03-04T00:57:06;9.65;;;1.10;;
50319;SDS011;36226;53.464;9.852;2023-03-04T00:59:31;8.48;;;1.23;;
50319;SDS011;36226;53.464;9.852;2023-03-04T01:01:57;16.55;;;1.60;;
50319;SDS011;36226;53.464;9.852;2023-03-04T01:04:22;8.35;;;0.90;;
50319;SDS011;36226;53.464;9.852;2023-03-04T01:06:48;9.07;;;1.10;;
50319;SDS011;36226;53.464;9.852;2023-03-04T01:09:13;16.17;;;2.40;;
50319;SDS011;36226;53.464;9.852;2023-03-04T01:11:38;14.77;;;1.23;;
50319;SDS011;36226;53.464;9.852;2023-03-04T01:14:04;15.68;;;1.77;;
50319;SDS011;36226;53.464;9.852;2023-03-04T01:16:29;9.55;;;1.00;;
50319;SDS011;36226;53.464;9.852;2023-03-04T01:18:54;9.45;;;1.05;;
50319;SDS011;36226;53.464;9.852;2023-03-04T01:21:20;10.77;;;1.08;;
50319;SDS011;36226;53.464;9.852;2023-03-04T01:23:45;8.43;;;1.00;;
50319;SDS011;36226;53.464;9.852;2023-03-04T01:26:10;11.77;;;1.17;;
50319;SDS011;36226;53.464;9.852;2023-03-04T01:28:36;9.68;;;1.05;;
50319;SDS011;36226;53.464;9.852;2023-03-04T01:31:01;5.90;;;0.75;;
50319;SDS011;36226;53.464;9.852;2023-03-04T01:33:27;8.57;;;0.93;;
50319;SDS011;36226;53.464;9.852;2023-03-04T01:35:53;5.47;;;0.80;;
50319;SDS011;36226;53.464;9.852;2023-03-04T01:38:18;8.10;;;0.93;;
50319;SDS011;36226;53.464;9.852;2023-03-04T01:40:44;7.75;;;0.93;;
50319;SDS011;36226;53.464;9.852;2023-03-04T01:43:17;8.00;;;1.00;;
50319;SDS011;36226;53.464;9.852;2023-03-04T01:45:48;7.25;;;0.98;;
50319;SDS011;36226;53.464;9.852;2023-03-04T01:48:14;9.85;;;1.10;;
50319;SDS011;36226;53.464;9.852;2023-03-04T01:50:41;11.23;;;1.20;;
50319;SDS011;36226;53.464;9.852;2023-03-04T01:53:09;8.00;;;0.82;;
50319;SDS011;36226;53.464;9.852;2023-03-04T01:55:41;10.18;;;1.25;;
50319;SDS011;36226;53.464;9.852;2023-03-04T01:58:08;7.38;;;1.05;;
50319;SDS011;36226;53.464;9.852;2023-03-04T02:00:34;11.15;;;1.48;;
50319;SDS011;36226;53.464;9.852;2023-03-04T02:03:03;12.75;;;1.17;;
50319;SDS011;36226;53.464;9.852;2023-03-04T02:05:32;6.15;;;0.80;;
50319;SDS011;36226;53.464;9.852;2023-03-04T02:07:58;8.63;;;1.10;;
50319;SDS011;36226;53.464;9.852;2023-03-04T02:10:25;11.30;;;1.85;;
50319;SDS011;36226;53.464;9.852;2023-03-04T02:12:51;3.55;;;0.75;;
50319;SDS011;36226;53.464;9.852;2023-03-04T02:15:16;10.35;;;1.20;;
50319;SDS011;36226;53.464;9.852;2023-03-04T02:17:42;21.65;;;1.42;;
50319;SDS011;36226;53.464;9.852;2023-03-04T02:23:15;5.05;;;0.70;;
50319;SDS011;36226;53.464;9.852;2023-03-04T02:25:46;6.60;;;0.77;;
50319;SDS011;36226;53.464;9.852;2023-03-04T02:28:28;7.30;;;1.10;;
50319;SDS011;36226;53.464;9.852;2023-03-04T02:30:53;7.22;;;0.85;;
50319;SDS011;36226;53.464;9.852;2023-03-04T02:33:18;5.18;;;0.75;;
50319;SDS011;36226;53.464;9.852;2023-03-04T02:35:44;5.75;;;1.00;;
50319;SDS011;36226;53.464;9.852;2023-03-04T02:38:10;6.18;;;1.10;;
50319;SDS011;36226;53.464;9.852;2023-03-04T02:40:36;11.00;;;1.10;;
50319;SDS011;36226;53.464;9.852;2023-03-04T02:43:03;5.97;;;0.90;;
50319;SDS011;36226;53.464;9.852;2023-03-04T02:45:34;7.28;;;0.80;;
50319;SDS011;36226;53.464;9.852;2023-03-04T02:48:07;4.95;;;0.75;;
50319;SDS011;36226;53.464;9.852;2023-03-04T02:50:35;8.95;;;0.90;;
50319;SDS011;36226;53.464;9.852;2023-03-04T02:53:03;8.52;;;0.80;;
50319;SDS011;36226;53.464;9.852;2023-03-04T02:55:29;5.05;;;0.73;;
50319;SDS011;36226;53.464;9.852;2023-03-04T02:57:56;10.07;;;0.85;;
50319;SDS011;36226;53.464;9.852;2023-03-04T03:00:21;6.72;;;0.90;;
50319;SDS011;36226;53.464;9.852;2023-03-04T03:02:47;7.15;;;1.40;;
50319;SDS011;36226;53.464;9.852;2023-03-04T03:05:12;8.05;;;1.20;;
50319;SDS011;36226;53.464;9.852;2023-03-04T03:07:37;12.55;;;1.63;;
50319;SDS011;36226;53.464;9.852;2023-03-04T03:10:03;10.57;;;1.13;;
50319;SDS011;36226;53.464;9.852;2023-03-04T03:12:29;10.20;;;0.90;;
50319;SDS011;36226;53.464;9.852;2023-03-04T03:14:54;11.85;;;1.17;;
50319;SDS011;36226;53.464;9.852;2023-03-04T03:17:19;9.80;;;1.10;;
50319;SDS011;36226;53.464;9.852;2023-03-04T03:19:45;7.15;;;0.85;;
50319;SDS011;36226;53.464;9.852;2023-03-04T03:22:10;8.38;;;0.95;;
50319;SDS011;36226;53.464;9.852;2023-03-04T03:24:35;9.15;;;0.90;;
50319;SDS011;36226;53.464;9.852;2023-03-04T03:27:01;11.68;;;0.90;;
50319;SDS011;36226;53.464;9.852;2023-03-04T03:29:26;5.95;;;1.08;;
50319;SDS011;36226;53.464;9.852;2023-03-04T03:31:52;5.10;;;0.93;;
50319;SDS011;36226;53.464;9.852;2023-03-04T03:34:17;6.55;;;0.93;;
50319;SDS011;36226;53.464;9.852;2023-03-04T03:36:42;14.60;;;1.20;;
50319;SDS011;36226;53.464;9.852;2023-03-04T03:39:08;8.85;;;1.08;;
50319;SDS011;36226;53.464;9.852;2023-03-04T03:41:33;9.07;;;1.20;;
50319;SDS011;36226;53.464;9.852;2023-03-04T03:43:58;4.60;;;0.70;;
50319;SDS011;36226;53.464;9.852;2023-03-04T03:46:23;7.78;;;1.17;;
50319;SDS011;36226;53.464;9.852;2023-03-04T03:48:49;9.82;;;0.85;;
50319;SDS011;36226;53.464;9.852;2023-03-04T03:51:14;5.97;;;1.27;;
50319;SDS011;36226;53.464;9.852;2023-03-04T03:53:40;6.65;;;0.90;;
50319;SDS011;36226;53.464;9.852;2023-03-04T03:56:05;6.85;;;0.85;;
50319;SDS011;36226;53.464;9.852;2023-03-04T03:58:31;8.05;;;0.73;;
50319;SDS011;36226;53.464;9.852;2023-03-04T04:00:56;11.85;;;1.02;;
50319;SDS011;36226;53.464;9.852;2023-03-04T04:03:22;13.90;;;1.42;;
50319;SDS011;36226;53.464;9.852;2023-03-04T04:05:47;12.70;;;1.23;;
50319;SDS011;36226;53.464;9.852;2023-03-04T04:08:13;8.63;;;1.02;;
50319;SDS011;36226;53.464;9.852;2023-03-04T04:10:39;9.48;;;1.27;;
50319;SDS011;36226;53.464;9.852;2023-03-04T04:13:05;12.70;;;1.13;;
50319;SDS011;36226;53.464;9.852;2023-03-04T04:15:30;5.10;;;0.82;;
50319;SDS011;36226;53.464;9.852;2023-03-04T04:17:56;11.43;;;0.90;;
50319;SDS011;36226;53.464;9.852;2023-03-04T04:20:21;7.30;;;0.80;;
50319;SDS011;36226;53.464;9.852;2023-03-04T04:22:46;12.38;;;0.98;;
50319;SDS011;36226;53.464;9.852;2023-03-04T04:25:12;7.93;;;0.85;;
50319;SDS011;36226;53.464;9.852;2023-03-04T04:27:37;5.78;;;1.42;;
50319;SDS011;36226;53.464;9.852;2023-03-04T04:30:03;10.23;;;1.10;;
50319;SDS011;36226;53.464;9.852;2023-03-04T04:32:29;9.45;;;1.17;;
50319;SDS011;36226;53.464;9.852;2023-03-04T04:34:55;10.35;;;1.05;;
50319;SDS011;36226;53.464;9.852;2023-03-04T04:37:20;10.25;;;1.20;;
50319;SDS011;36226;53.464;9.852;2023-03-04T04:39:45;7.68;;;1.27;;
50319;SDS011;36226;53.464;9.852;2023-03-04T04:42:11;6.53;;;1.42;;
50319;SDS011;36226;53.464;9.852;2023-03-04T04:44:36;8.98;;;1.13;;
50319;SDS011;36226;53.464;9.852;2023-03-04T04:47:03;5.95;;;0.85;;
50319;SDS011;36226;53.464;9.852;2023-03-04T04:49:30;6.05;;;0.90;;
50319;SDS011;36226;53.464;9.852;2023-03-04T04:51:56;8.63;;;1.23;;
50319;SDS011;36226;53.464;9.852;2023-03-04T04:54:21;13.13;;;1.48;;
50319;SDS011;36226;53.464;9.852;2023-03-04T04:56:47;9.10;;;0.95;;
50319;SDS011;36226;53.464;9.852;2023-03-04T04:59:12;6.40;;;0.95;;
50319;SDS011;36226;53.464;9.852;2023-03-04T05:01:38;10.95;;;2.85;;
50319;SDS011;36226;53.464;9.852;2023-03-04T05:04:03;8.15;;;1.13;;
50319;SDS011;36226;53.464;9.852;2023-03-04T05:06:29;9.52;;;1.23;;
50319;SDS011;36226;53.464;9.852;2023-03-04T05:08:54;8.27;;;1.30;;
50319;SDS011;36226;53.464;9.852;2023-03-04T05:11:20;8.15;;;0.95;;
50319;SDS011;36226;53.464;9.852;2023-03-04T05:13:46;11.23;;;1.55;;
50319;SDS011;36226;53.464;9.852;2023-03-04T05:16:12;8.23;;;1.30;;
50319;SDS011;36226;53.464;9.852;2023-03-04T05:18:38;7.68;;;1.00;;
50319;SDS011;36226;53.464;9.852;2023-03-04T05:21:03;9.25;;;1.45;;
50319;SDS011;36226;53.464;9.852;2023-03-04T05:23:33;12.73;;;1.77;;
50319;SDS011;36226;53.464;9.852;2023-03-04T05:26:00;6.25;;;1.10;;
50319;SDS011;36226;53.464;9.852;2023-03-04T05:28:26;11.52;;;1.35;;
50319;SDS011;36226;53.464;9.852;2023-03-04T05:30:52;13.80;;;1.88;;
50319;SDS011;36226;53.464;9.852;2023-03-04T05:33:17;14.50;;;2.13;;
50319;SDS011;36226;53.464;9.852;2023-03-04T05:35:43;10.93;;;1.98;;
50319;SDS011;36226;53.464;9.852;2023-03-04T05:38:11;17.45;;;1.63;;
50319;SDS011;36226;53.464;9.852;2023-03-04T05:40:38;15.90;;;1.52;;
50319;SDS011;36226;53.464;9.852;2023-03-04T05:43:04;14.68;;;1.48;;
50319;SDS011;36226;53.464;9.852;2023-03-04T05:45:30;13.20;;;1.90;;
50319;SDS011;36226;53.464;9.852;2023-03-04T05:47:55;15.80;;;2.20;;
50319;SDS011;36226;53.464;9.852;2023-03-04T05:50:21;11.85;;;1.58;;
50319;SDS011;36226;53.464;9.852;2023-03-04T05:52:47;14.55;;;1.58;;
50319;SDS011;36226;53.464;9.852;2023-03-04T05:55:13;13.30;;;1.70;;
50319;SDS011;36226;53.464;9.852;2023-03-04T05:57:39;10.05;;;1.40;;
50319;SDS011;36226;53.464;9.852;2023-03-04T06:00:05;9.13;;;1.52;;
50319;SDS011;36226;53.464;9.852;2023-03-04T06:02:33;13.90;;;1.58;;
50319;SDS011;36226;53.464;9.852;2023-03-04T06:04:59;14.02;;;2.38;;
50319;SDS011;36226;53.464;9.852;2023-03-04T06:07:24;11.55;;;1.67;;
50319;SDS011;36226;53.464;9.852;2023-03-04T06:09:50;10.48;;;1.58;;
50319;SDS011;36226;53.464;9.852;2023-03-04T06:12:15;11.85;;;1.60;;
50319;SDS011;36226;53.464;9.852;2023-03-04T06:14:41;9.77;;;1.17;;
50319;SDS011;36226;53.464;9.852;2023-03-04T06:17:06;8.65;;;1.73;;
50319;SDS011;36226;53.464;9.852;2023-03-04T06:19:31;14.60;;;1.80;;
50319;SDS011;36226;53.464;9.852;2023-03-04T06:21:57;12.70;;;2.80;;
50319;SDS011;36226;53.464;9.852;2023-03-04T06:24:22;13.80;;;1.40;;
50319;SDS011;36226;53.464;9.852;2023-03-04T06:26:48;11.00;;;1.95;;
50319;SDS011;36226;53.464;9.852;2023-03-04T06:29:13;19.25;;;1.90;;
50319;SDS011;36226;53.464;9.852;2023-03-04T06:31:38;15.07;;;1.90;;
50319;SDS011;36226;53.464;9.852;2023-03-04T06:34:06;21.52;;;2.20;;
50319;SDS011;36226;53.464;9.852;2023-03-04T06:36:31;19.95;;;2.15;;
50319;SDS011;36226;53.464;9.852;2023-03-04T06:38:57;12.00;;;1.85;;
50319;SDS011;36226;53.464;9.852;2023-03-04T06:41:22;20.95;;;2.60;;
50319;SDS011;36226;53.464;9.852;2023-03-04T06:43:47;13.77;;;1.80;;
50319;SDS011;36226;53.464;9.852;2023-03-04T06:46:13;14.02;;;2.13;;
50319;SDS011;36226;53.464;9.852;2023-03-04T06:48:38;17.17;;;2.20;;
50319;SDS011;36226;53.464;9.852;2023-03-04T06:51:04;20.27;;;1.88;;
50319;SDS011;36226;53.464;9.852;2023-03-04T06:53:33;10.68;;;2.42;;
50319;SDS011;36226;53.464;9.852;2023-03-04T06:55:59;16.55;;;2.13;;
50319;SDS011;36226;53.464;9.852;2023-03-04T06:58:24;19.42;;;2.42;;
50319;SDS011;36226;53.464;9.852;2023-03-04T07:00:50;21.40;;;2.30;;
50319;SDS011;36226;53.464;9.852;2023-03-04T07:03:15;16.77;;;2.95;;
50319;SDS011;36226;53.464;9.852;2023-03-04T07:05:41;17.42;;;2.22;;
50319;SDS011;36226;53.464;9.852;2023-03-04T07:08:07;12.27;;;1.33;;
50319;SDS011;36226;53.464;9.852;2023-03-04T07:10:32;16.27;;;1.67;;
50319;SDS011;36226;53.464;9.852;2023-03-04T07:12:57;17.23;;;2.85;;
50319;SDS011;36226;53.464;9.852;2023-03-04T07:15:23;12.95;;;1.80;;
50319;SDS011;36226;53.464;9.852;2023-03-04T07:17:48;10.55;;;2.35;;
50319;SDS011;36226;53.464;9.852;2023-03-04T07:20:13;10.00;;;1.80;;
50319;SDS011;36226;53.464;9.852;2023-03-04T07:22:39;7.90;;;1.35;;
50319;SDS011;36226;53.464;9.852;2023-03-04T07:25:04;13.32;;;1.58;;
50319;SDS011;36226;53.464;9.852;2023-03-04T07:27:30;12.02;;;1.70;;
50319;SDS011;36226;53.464;9.852;2023-03-04T07:29:56;12.15;;;1.33;;
50319;SDS011;36226;53.464;9.852;2023-03-04T07:32:21;8.45;;;1.23;;
50319;SDS011;36226;53.464;9.852;2023-03-04T07:34:46;13.77;;;1.50;;
50319;SDS011;36226;53.464;9.852;2023-03-04T07:37:12;9.98;;;1.33;;
50319;SDS011;36226;53.464;9.852;2023-03-04T07:39:37;11.38;;;1.60;;
50319;SDS011;36226;53.464;9.852;2023-03-04T07:42:02;13.93;;;2.33;;
50319;SDS011;36226;53.464;9.852;2023-03-04T07:44:28;15.27;;;2.00;;
50319;SDS011;36226;53.464;9.852;2023-03-04T07:46:53;14.73;;;2.65;;
50319;SDS011;36226;53.464;9.852;2023-03-04T07:49:20;22.13;;;2.55;;
50319;SDS011;36226;53.464;9.852;2023-03-04T07:51:45;15.38;;;3.60;;
50319;SDS011;36226;53.464;9.852;2023-03-04T07:54:11;17.85;;;2.97;;
50319;SDS011;36226;53.464;9.852;2023-03-04T07:56:36;11.63;;;2.90;;
50319;SDS011;36226;53.464;9.852;2023-03-04T07:59:02;20.15;;;2.80;;
50319;SDS011;36226;53.464;9.852;2023-03-04T08:01:28;15.05;;;2.38;;
50319;SDS011;36226;53.464;9.852;2023-03-04T08:03:58;9.00;;;1.80;;
50319;SDS011;36226;53.464;9.852;2023-03-04T08:06:24;19.58;;;3.08;;
50319;SDS011;36226;53.464;9.852;2023-03-04T08:08:54;11.65;;;2.08;;
50319;SDS011;36226;53.464;9.852;2023-03-04T08:11:23;13.70;;;2.95;;
50319;SDS011;36226;53.464;9.852;2023-03-04T08:13:49;14.02;;;2.30;;
50319;SDS011;36226;53.464;9.852;2023-03-04T08:16:15;9.50;;;2.15;;
50319;SDS011;36226;53.464;9.852;2023-03-04T08:18:45;13.15;;;2.10;;
50319;SDS011;36226;53.464;9.852;2023-03-04T08:21:13;16.23;;;1.95;;
50319;SDS011;36226;53.464;9.852;2023-03-04T08:23:39;14.57;;;1.90;;
50319;SDS011;36226;53.464;9.852;2023-03-04T08:26:10;12.00;;;1.90;;
50319;SDS011;36226;53.464;9.852;2023-03-04T08:28:37;12.40;;;2.30;;
50319;SDS011;36226;53.464;9.852;2023-03-04T08:31:03;15.98;;;2.33;;
50319;SDS011;36226;53.464;9.852;2023-03-04T08:33:28;16.00;;;2.55;;
50319;SDS011;36226;53.464;9.852;2023-03-04T08:35:55;15.80;;;2.28;;
50319;SDS011;36226;53.464;9.852;2023-03-04T08:38:21;20.73;;;2.65;;
50319;SDS011;36226;53.464;9.852;2023-03-04T08:40:50;13.88;;;2.10;;
50319;SDS011;36226;53.464;9.852;2023-03-04T08:43:17;14.18;;;2.05;;
50319;SDS011;36226;53.464;9.852;2023-03-04T08:45:42;22.10;;;2.60;;
50319;SDS011;36226;53.464;9.852;2023-03-04T08:48:07;15.40;;;1.92;;
50319;SDS011;36226;53.464;9.852;2023-03-04T08:50:33;17.02;;;2.28;;
50319;SDS011;36226;53.464;9.852;2023-03-04T08:52:59;14.13;;;2.25;;
50319;SDS011;36226;53.464;9.852;2023-03-04T08:55:25;15.88;;;3.38;;
50319;SDS011;36226;53.464;9.852;2023-03-04T08:57:50;20.65;;;4.00;;
50319;SDS011;36226;53.464;9.852;2023-03-04T09:00:15;21.58;;;4.03;;
50319;SDS011;36226;53.464;9.852;2023-03-04T09:02:41;19.20;;;2.75;;
50319;SDS011;36226;53.464;9.852;2023-03-04T09:05:10;16.40;;;2.58;;
50319;SDS011;36226;53.464;9.852;2023-03-04T09:07:35;17.88;;;2.70;;
50319;SDS011;36226;53.464;9.852;2023-03-04T09:10:01;19.00;;;3.15;;
50319;SDS011;36226;53.464;9.852;2023-03-04T09:12:26;11.80;;;2.53;;
50319;SDS011;36226;53.464;9.852;2023-03-04T09:14:51;15.63;;;2.90;;
50319;SDS011;36226;53.464;9.852;2023-03-04T09:17:17;19.98;;;2.65;;
50319;SDS011;36226;53.464;9.852;2023-03-04T09:19:42;24.27;;;3.17;;
50319;SDS011;36226;53.464;9.852;2023-03-04T09:22:07;14.98;;;2.67;;
50319;SDS011;36226;53.464;9.852;2023-03-04T09:24:33;15.73;;;2.70;;
50319;SDS011;36226;53.464;9.852;2023-03-04T09:26:58;19.20;;;3.00;;
50319;SDS011;36226;53.464;9.852;2023-03-04T09:29:23;18.20;;;2.80;;
50319;SDS011;36226;53.464;9.852;2023-03-04T09:31:49;22.45;;;3.10;;
50319;SDS011;36226;53.464;9.852;2023-03-04T09:34:14;16.63;;;2.17;;
50319;SDS011;36226;53.464;9.852;2023-03-04T09:36:40;16.00;;;2.58;;
50319;SDS011;36226;53.464;9.852;2023-03-04T09:39:05;18.92;;;2.80;;
50319;SDS011;36226;53.464;9.852;2023-03-04T09:41:43;26.95;;;3.15;;
50319;SDS011;36226;53.464;9.852;2023-03-04T09:44:33;19.77;;;2.90;;
50319;SDS011;36226;53.464;9.852;2023-03-04T09:46:59;13.55;;;2.92;;
50319;SDS011;36226;53.464;9.852;2023-03-04T09:49:26;20.17;;;3.28;;
50319;SDS011;36226;53.464;9.852;2023-03-04T09:54:29;16.25;;;2.45;;
50319;SDS011;36226;53.464;9.852;2023-03-04T09:56:59;21.10;;;3.15;;
50319;SDS011;36226;53.464;9.852;2023-03-04T09:59:42;17.55;;;3.08;;
50319;SDS011;36226;53.464;9.852;2023-03-04T10:02:24;16.23;;;2.95;;
50319;SDS011;36226;53.464;9.852;2023-03-04T10:05:09;10.73;;;2.15;;
50319;SDS011;36226;53.464;9.852;2023-03-04T10:07:39;23.27;;;2.53;;
50319;SDS011;36226;53.464;9.852;2023-03-04T10:10:29;18.10;;;2.65;;
50319;SDS011;36226;53.464;9.852;2023-03-04T10:12:54;18.73;;;2.42;;
50319;SDS011;36226;53.464;9.852;2023-03-04T10:18:05;12.98;;;2.03;;
50319;SDS011;36226;53.464;9.852;2023-03-04T10:21:00;18.50;;;2.90;;
50319;SDS011;36226;53.464;9.852;2023-03-04T10:23:33;24.15;;;2.38;;
50319;SDS011;36226;53.464;9.852;2023-03-04T10:26:09;13.07;;;2.42;;
50319;SDS011;36226;53.464;9.852;2023-03-04T10:31:11;16.23;;;2.08;;
50319;SDS011;36226;53.464;9.852;2023-03-04T10:33:41;15.98;;;2.30;;
50319;SDS011;36226;53.464;9.852;2023-03-04T10:38:39;18.70;;;3.00;;
50319;SDS011;36226;53.464;9.852;2023-03-04T10:41:13;15.45;;;2.58;;
50319;SDS011;36226;53.464;9.852;2023-03-04T10:43:40;23.02;;;3.10;;
50319;SDS011;36226;53.464;9.852;2023-03-04T10:46:09;18.42;;;2.20;;
50319;SDS011;36226;53.464;9.852;2023-03-04T10:48:35;13.85;;;2.22;;
50319;SDS011;36226;53.464;9.852;2023-03-04T10:51:24;11.77;;;2.17;;
50319;SDS011;36226;53.464;9.852;2023-03-04T10:53:55;14.07;;;2.28;;
50319;SDS011;36226;53.464;9.852;2023-03-04T10:56:38;19.52;;;2.65;;
50319;SDS011;36226;53.464;9.852;2023-03-04T11:01:55;17.83;;;2.58;;
50319;SDS011;36226;53.464;9.852;2023-03-04T11:04:22;16.23;;;2.50;;
50319;SDS011;36226;53.464;9.852;2023-03-04T11:06:51;19.80;;;2.75;;
50319;SDS011;36226;53.464;9.852;2023-03-04T11:09:21;16.77;;;2.40;;
50319;SDS011;36226;53.464;9.852;2023-03-04T11:11:51;18.15;;;3.00;;
50319;SDS011;36226;53.464;9.852;2023-03-04T11:14:22;21.70;;;3.08;;
50319;SDS011;36226;53.464;9.852;2023-03-04T11:17:08;18.38;;;2.30;;
50319;SDS011;36226;53.464;9.852;2023-03-04T11:19:41;12.02;;;2.40;;
50319;SDS011;36226;53.464;9.852;2023-03-04T11:22:12;16.10;;;2.42;;
50319;SDS011;36226;53.464;9.852;2023-03-04T11:24:43;22.48;;;2.80;;
50319;SDS011;36226;53.464;9.852;2023-03-04T11:27:16;10.20;;;2.33;;
50319;SDS011;36226;53.464;9.852;2023-03-04T11:33:11;20.17;;;2.25;;
50319;SDS011;36226;53.464;9.852;2023-03-04T11:35:46;19.38;;;2.78;;
50319;SDS011;36226;53.464;9.852;2023-03-04T11:38:19;15.75;;;2.40;;
50319;SDS011;36226;53.464;9.852;2023-03-04T11:40:51;19.20;;;2.85;;
50319;SDS011;36226;53.464;9.852;2023-03-04T11:53:59;9.48;;;1.85;;
50319;SDS011;36226;53.464;9.852;2023-03-04T12:15:31;14.55;;;2.53;;
50319;SDS011;36226;53.464;9.852;2023-03-04T12:18:25;17.75;;;2.70;;
50319;SDS011;36226;53.464;9.852;2023-03-04T12:43:44;13.90;;;2.17;;
50319;SDS011;36226;53.464;9.852;2023-03-04T12:48:57;16.08;;;2.10;;
50319;SDS011;36226;53.464;9.852;2023-03-04T12:51:41;22.33;;;3.15;;
50319;SDS011;36226;53.464;9.852;2023-03-04T12:54:34;17.23;;;2.17;;
50319;SDS011;36226;53.464;9.852;2023-03-04T12:59:53;18.50;;;2.13;;
50319;SDS011;36226;53.464;9.852;2023-03-04T13:10:40;15.45;;;1.90;;
50319;SDS011;36226;53.464;9.852;2023-03-04T13:13:31;15.68;;;2.15;;
50319;SDS011;36226;53.464;9.852;2023-03-04T13:16:05;14.60;;;1.75;;
50319;SDS011;36226;53.464;9.852;2023-03-04T13:18:45;14.63;;;2.13;;
50319;SDS011;36226;53.464;9.852;2023-03-04T13:23:47;14.57;;;2.03;;
50319;SDS011;36226;53.464;9.852;2023-03-04T13:42:54;11.15;;;1.90;;
50319;SDS011;36226;53.464;9.852;2023-03-04T13:48:02;12.40;;;1.52;;
50319;SDS011;36226;53.464;9.852;2023-03-04T13:50:31;12.05;;;1.90;;
50319;SDS011;36226;53.464;9.852;2023-03-04T13:56:06;12.77;;;2.15;;
50319;SDS011;36226;53.464;9.852;2023-03-04T13:58:34;13.30;;;1.77;;
50319;SDS011;36226;53.464;9.852;2023-03-04T14:01:01;11.90;;;1.75;;
50319;SDS011;36226;53.464;9.852;2023-03-04T14:03:28;15.77;;;1.70;;
50319;SDS011;36226;53.464;9.852;2023-03-04T14:06:07;14.90;;;2.35;;
50319;SDS011;36226;53.464;9.852;2023-03-04T14:08:33;11.18;;;1.65;;
50319;SDS011;36226;53.464;9.852;2023-03-04T14:10:58;11.82;;;1.90;;
50319;SDS011;36226;53.464;9.852;2023-03-04T14:13:24;10.77;;;1.73;;
50319;SDS011;36226;53.464;9.852;2023-03-04T14:15:54;8.98;;;1.65;;
50319;SDS011;36226;53.464;9.852;2023-03-04T14:18:21;10.25;;;1.60;;
50319;SDS011;36226;53.464;9.852;2023-03-04T14:20:49;16.00;;;1.77;;
50319;SDS011;36226;53.464;9.852;2023-03-04T14:23:22;9.75;;;1.40;;
50319;SDS011;36226;53.464;9.852;2023-03-04T14:26:11;16.75;;;1.85;;
50319;SDS011;36226;53.464;9.852;2023-03-04T14:28:42;20.85;;;1.90;;
50319;SDS011;36226;53.464;9.852;2023-03-04T14:31:16;10.23;;;1.88;;
50319;SDS011;36226;53.464;9.852;2023-03-04T14:33:43;10.82;;;2.15;;
50319;SDS011;36226;53.464;9.852;2023-03-04T14:36:13;6.50;;;1.40;;
50319;SDS011;36226;53.464;9.852;2023-03-04T14:38:41;10.55;;;1.65;;
50319;SDS011;36226;53.464;9.852;2023-03-04T14:41:14;11.80;;;1.75;;
50319;SDS011;36226;53.464;9.852;2023-03-04T14:43:45;10.07;;;1.67;;
50319;SDS011;36226;53.464;9.852;2023-03-04T14:46:18;10.88;;;1.80;;
50319;SDS011;36226;53.464;9.852;2023-03-04T14:48:44;12.10;;;1.60;;
50319;SDS011;36226;53.464;9.852;2023-03-04T14:51:26;8.27;;;1.30;;
50319;SDS011;36226;53.464;9.852;2023-03-04T14:53:55;8.23;;;1.60;;
50319;SDS011;36226;53.464;9.852;2023-03-04T14:56:27;9.43;;;1.55;;
50319;SDS011;36226;53.464;9.852;2023-03-04T14:58:55;12.93;;;1.80;;
50319;SDS011;36226;53.464;9.852;2023-03-04T15:01:22;11.30;;;2.13;;
50319;SDS011;36226;53.464;9.852;2023-03-04T15:04:04;16.67;;;1.52;;
50319;SDS011;36226;53.464;9.852;2023-03-04T15:06:32;15.32;;;1.70;;
50319;SDS011;36226;53.464;9.852;2023-03-04T15:08:59;10.35;;;1.50;;
50319;SDS011;36226;53.464;9.852;2023-03-04T15:11:28;11.57;;;1.65;;
50319;SDS011;36226;53.464;9.852;2023-03-04T15:17:21;11.25;;;2.42;;
50319;SDS011;36226;53.464;9.852;2023-03-04T15:25:11;11.68;;;2.33;;
50319;SDS011;36226;53.464;9.852;2023-03-04T15:27:39;8.95;;;1.73;;
50319;SDS011;36226;53.464;9.852;2023-03-04T15:30:05;9.57;;;2.20;;
50319;SDS011;36226;53.464;9.852;2023-03-04T15:32:31;9.73;;;1.65;;
50319;SDS011;36226;53.464;9.852;2023-03-04T15:34:57;11.15;;;1.50;;
50319;SDS011;36226;53.464;9.852;2023-03-04T15:37:24;10.65;;;1.60;;
50319;SDS011;36226;53.464;9.852;2023-03-04T15:39:51;10.52;;;2.00;;
50319;SDS011;36226;53.464;9.852;2023-03-04T15:42:17;6.60;;;1.63;;
50319;SDS011;36226;53.464;9.852;2023-03-04T15:44:43;13.30;;;1.70;;
50319;SDS011;36226;53.464;9.852;2023-03-04T15:47:09;14.80;;;1.90;;
50319;SDS011;36226;53.464;9.852;2023-03-04T15:49:37;9.18;;;1.45;;
50319;SDS011;36226;53.464;9.852;2023-03-04T15:52:03;11.48;;;1.35;;
50319;SDS011;36226;53.464;9.852;2023-03-04T15:54:40;13.55;;;1.52;;
50319;SDS011;36226;53.464;9.852;2023-03-04T15:57:06;12.43;;;1.80;;
50319;SDS011;36226;53.464;9.852;2023-03-04T15:59:42;15.90;;;2.20;;
50319;SDS011;36226;53.464;9.852;2023-03-04T16:02:10;15.57;;;1.83;;
50319;SDS011;36226;53.464;9.852;2023-03-04T16:04:51;10.00;;;1.48;;
50319;SDS011;36226;53.464;9.852;2023-03-04T16:07:21;13.23;;;1.63;;
50319;SDS011;36226;53.464;9.852;2023-03-04T16:09:59;10.95;;;1.63;;
50319;SDS011;36226;53.464;9.852;2023-03-04T16:12:26;8.38;;;1.15;;
50319;SDS011;36226;53.464;9.852;2023-03-04T16:14:52;9.52;;;1.45;;
50319;SDS011;36226;53.464;9.852;2023-03-04T16:17:18;16.65;;;1.50;;
50319;SDS011;36226;53.464;9.852;2023-03-04T16:19:46;8.38;;;1.30;;
50319;SDS011;36226;53.464;9.852;2023-03-04T16:22:12;12.35;;;2.13;;
50319;SDS011;36226;53.464;9.852;2023-03-04T16:24:39;15.23;;;2.05;;
50319;SDS011;36226;53.464;9.852;2023-03-04T16:27:10;9.93;;;1.50;;
50319;SDS011;36226;53.464;9.852;2023-03-04T16:29:37;12.23;;;1.60;;
50319;SDS011;36226;53.464;9.852;2023-03-04T16:32:06;10.43;;;1.50;;
50319;SDS011;36226;53.464;9.852;2023-03-04T16:34:32;14.40;;;1.70;;
50319;SDS011;36226;53.464;9.852;2023-03-04T16:36:57;10.98;;;1.67;;
50319;SDS011;36226;53.464;9.852;2023-03-04T16:39:27;14.07;;;1.88;;
50319;SDS011;36226;53.464;9.852;2023-03-04T16:41:53;8.02;;;1.70;;